sensor_id;sensor_type;location;lat;lon;timestamp;temperature;humidity
43995;DHT22;51687;52.160;5.298;2024-03-02T00:01:34;14.30;52.80
43995;DHT22;51687;52.160;5.298;2024-03-02T00:04:04;14.40;55.40
43995;DHT22;51687;52.160;5.298;2024-03-02T00:06:30;14.40;56.10
43995;DHT22;51687;52.160;5.298;2024-03-02T00:08:58;14.50;54.30
43995;DHT22;51687;52.160;5.298;2024-03-02T00:11:25;14.50;55.20
43995;DHT22;51687;52.160;5.298;2024-03-02T00:13:53;14.50;52.20
43995;DHT22;51687;52.160;5.298;2024-03-02T00:16:20;14.50;53.80
43995;DHT22;51687;52.160;5.298;2024-03-02T00:18:47;14.50;54.00
43995;DHT22;51687;52.160;5.298;2024-03-02T00:21:14;14.50;53.00
43995;DHT22;51687;52.160;5.298;2024-03-02T00:23:43;14.50;52.80
43995;DHT22;51687;52.160;5.298;2024-03-02T00:26:11;14.50;52.80
43995;DHT22;51687;52.160;5.298;2024-03-02T00:28:38;14.40;52.40
43995;DHT22;51687;52.160;5.298;2024-03-02T00:31:06;14.40;54.40
43995;DHT22;51687;52.160;5.298;2024-03-02T00:33:36;14.30;52.50
43995;DHT22;51687;52.160;5.298;2024-03-02T00:36:04;14.20;52.40
43995;DHT22;51687;52.160;5.298;2024-03-02T00:38:31;14.00;52.30
43995;DHT22;51687;52.160;5.298;2024-03-02T00:41:06;13.90;53.10
43995;DHT22;51687;52.160;5.298;2024-03-02T00:44:03;13.80;53.90
43995;DHT22;51687;52.160;5.298;2024-03-02T00:46:39;13.70;54.70
43995;DHT22;51687;52.160;5.298;2024-03-02T00:49:20;13.60;55.20
43995;DHT22;51687;52.160;5.298;2024-03-02T00:51:50;13.50;55.80
43995;DHT22;51687;52.160;5.298;2024-03-02T00:54:21;13.50;55.80
43995;DHT22;51687;52.160;5.298;2024-03-02T00:56:48;13.50;56.20
43995;DHT22;51687;52.160;5.298;2024-03-02T00:59:16;13.50;56.40
43995;DHT22;51687;52.160;5.298;2024-03-02T01:01:43;13.50;56.90
43995;DHT22;51687;52.160;5.298;2024-03-02T01:09:04;13.50;57.00
43995;DHT22;51687;52.160;5.298;2024-03-02T01:11:31;13.50;57.40
43995;DHT22;51687;52.160;5.298;2024-03-02T01:13:58;13.40;58.00
43995;DHT22;51687;52.160;5.298;2024-03-02T01:16:25;13.40;58.40
43995;DHT22;51687;52.160;5.298;2024-03-02T01:18:52;13.40;58.70
43995;DHT22;51687;52.160;5.298;2024-03-02T01:21:19;13.40;58.60
43995;DHT22;51687;52.160;5.298;2024-03-02T01:23:46;13.30;59.40
43995;DHT22;51687;52.160;5.298;2024-03-02T01:26:12;13.30;59.20
43995;DHT22;51687;52.160;5.298;2024-03-02T01:28:39;13.30;58.90
43995;DHT22;51687;52.160;5.298;2024-03-02T01:31:06;13.40;59.70
43995;DHT22;51687;52.160;5.298;2024-03-02T01:33:33;13.40;59.20
43995;DHT22;51687;52.160;5.298;2024-03-02T01:36:00;13.30;58.90
43995;DHT22;51687;52.160;5.298;2024-03-02T01:38:27;13.30;59.10
43995;DHT22;51687;52.160;5.298;2024-03-02T01:40:55;13.30;59.10
43995;DHT22;51687;52.160;5.298;2024-03-02T01:43:24;13.30;59.10
43995;DHT22;51687;52.160;5.298;2024-03-02T01:45:52;13.30;58.90
43995;DHT22;51687;52.160;5.298;2024-03-02T01:48:20;13.30;59.00
43995;DHT22;51687;52.160;5.298;2024-03-02T01:50:47;13.20;59.70
43995;DHT22;51687;52.160;5.298;2024-03-02T01:53:14;13.30;59.20
43995;DHT22;51687;52.160;5.298;2024-03-02T01:55:41;13.30;59.00
43995;DHT22;51687;52.160;5.298;2024-03-02T01:58:08;13.30;58.40
43995;DHT22;51687;52.160;5.298;2024-03-02T02:00:35;13.20;58.70
43995;DHT22;51687;52.160;5.298;2024-03-02T02:03:02;13.20;58.90
43995;DHT22;51687;52.160;5.298;2024-03-02T02:05:29;13.10;59.10
43995;DHT22;51687;52.160;5.298;2024-03-02T02:07:56;13.10;59.40
43995;DHT22;51687;52.160;5.298;2024-03-02T02:10:25;13.10;59.40
43995;DHT22;51687;52.160;5.298;2024-03-02T02:12:52;13.10;60.30
43995;DHT22;51687;52.160;5.298;2024-03-02T02:15:29;13.10;61.30
43995;DHT22;51687;52.160;5.298;2024-03-02T02:17:58;13.10;59.80
43995;DHT22;51687;52.160;5.298;2024-03-02T02:20:26;13.10;59.60
43995;DHT22;51687;52.160;5.298;2024-03-02T02:23:02;13.10;59.70
43995;DHT22;51687;52.160;5.298;2024-03-02T02:25:29;13.10;59.50
43995;DHT22;51687;52.160;5.298;2024-03-02T02:27:57;13.10;59.70
43995;DHT22;51687;52.160;5.298;2024-03-02T02:30:27;13.00;60.10
43995;DHT22;51687;52.160;5.298;2024-03-02T02:32:54;13.00;60.30
43995;DHT22;51687;52.160;5.298;2024-03-02T02:35:21;13.10;60.80
43995;DHT22;51687;52.160;5.298;2024-03-02T02:37:49;13.10;60.30
43995;DHT22;51687;52.160;5.298;2024-03-02T02:40:17;13.10;60.50
43995;DHT22;51687;52.160;5.298;2024-03-02T02:42:45;13.10;60.80
43995;DHT22;51687;52.160;5.298;2024-03-02T02:45:12;13.10;63.20
43995;DHT22;51687;52.160;5.298;2024-03-02T02:47:42;13.10;61.30
43995;DHT22;51687;52.160;5.298;2024-03-02T02:50:09;13.10;61.70
43995;DHT22;51687;52.160;5.298;2024-03-02T02:52:39;13.20;61.30
43995;DHT22;51687;52.160;5.298;2024-03-02T02:55:08;13.20;61.00
43995;DHT22;51687;52.160;5.298;2024-03-02T02:57:37;13.30;61.10
43995;DHT22;51687;52.160;5.298;2024-03-02T03:00:10;13.30;61.00
43995;DHT22;51687;52.160;5.298;2024-03-02T03:02:42;13.30;60.70
43995;DHT22;51687;52.160;5.298;2024-03-02T03:05:12;13.30;60.40
43995;DHT22;51687;52.160;5.298;2024-03-02T03:07:40;13.30;61.10
43995;DHT22;51687;52.160;5.298;2024-03-02T03:10:07;13.30;60.50
43995;DHT22;51687;52.160;5.298;2024-03-02T03:12:35;13.30;60.30
43995;DHT22;51687;52.160;5.298;2024-03-02T03:15:03;13.30;59.90
43995;DHT22;51687;52.160;5.298;2024-03-02T03:17:31;13.20;59.40
43995;DHT22;51687;52.160;5.298;2024-03-02T03:19:58;13.20;60.10
43995;DHT22;51687;52.160;5.298;2024-03-02T03:22:25;13.20;61.00
43995;DHT22;51687;52.160;5.298;2024-03-02T03:24:52;13.20;59.50
43995;DHT22;51687;52.160;5.298;2024-03-02T03:27:19;13.20;58.80
43995;DHT22;51687;52.160;5.298;2024-03-02T03:29:47;13.20;59.40
43995;DHT22;51687;52.160;5.298;2024-03-02T03:32:13;13.20;59.40
43995;DHT22;51687;52.160;5.298;2024-03-02T03:34:40;13.20;59.10
43995;DHT22;51687;52.160;5.298;2024-03-02T03:37:07;13.20;58.50
43995;DHT22;51687;52.160;5.298;2024-03-02T03:39:34;13.20;59.30
43995;DHT22;51687;52.160;5.298;2024-03-02T03:42:03;13.20;59.40
43995;DHT22;51687;52.160;5.298;2024-03-02T03:44:30;13.30;57.90
43995;DHT22;51687;52.160;5.298;2024-03-02T03:46:57;13.30;57.40
43995;DHT22;51687;52.160;5.298;2024-03-02T03:49:23;13.20;57.70
43995;DHT22;51687;52.160;5.298;2024-03-02T03:51:53;13.30;58.10
43995;DHT22;51687;52.160;5.298;2024-03-02T03:54:20;13.20;57.40
43995;DHT22;51687;52.160;5.298;2024-03-02T03:56:47;13.20;59.70
43995;DHT22;51687;52.160;5.298;2024-03-02T03:59:14;13.30;58.00
43995;DHT22;51687;52.160;5.298;2024-03-02T04:01:41;13.30;57.60
43995;DHT22;51687;52.160;5.298;2024-03-02T04:04:07;13.30;57.60
43995;DHT22;51687;52.160;5.298;2024-03-02T04:06:34;13.30;58.50
43995;DHT22;51687;52.160;5.298;2024-03-02T04:09:01;13.30;58.00
43995;DHT22;51687;52.160;5.298;2024-03-02T04:11:28;13.30;57.10
43995;DHT22;51687;52.160;5.298;2024-03-02T04:13:55;13.30;56.80
43995;DHT22;51687;52.160;5.298;2024-03-02T04:16:24;13.30;57.50
43995;DHT22;51687;52.160;5.298;2024-03-02T04:18:51;13.30;57.40
43995;DHT22;51687;52.160;5.298;2024-03-02T04:21:18;13.30;57.00
43995;DHT22;51687;52.160;5.298;2024-03-02T04:23:44;13.30;56.70
43995;DHT22;51687;52.160;5.298;2024-03-02T04:26:11;13.30;57.70
43995;DHT22;51687;52.160;5.298;2024-03-02T04:28:38;13.30;56.90
43995;DHT22;51687;52.160;5.298;2024-03-02T04:31:05;13.30;57.50
43995;DHT22;51687;52.160;5.298;2024-03-02T04:33:32;13.30;57.20
43995;DHT22;51687;52.160;5.298;2024-03-02T04:35:58;13.30;57.40
43995;DHT22;51687;52.160;5.298;2024-03-02T04:38:25;13.30;57.20
43995;DHT22;51687;52.160;5.298;2024-03-02T04:40:52;13.30;57.90
43995;DHT22;51687;52.160;5.298;2024-03-02T04:43:19;13.30;57.70
43995;DHT22;51687;52.160;5.298;2024-03-02T04:45:47;13.30;57.50
43995;DHT22;51687;52.160;5.298;2024-03-02T04:48:13;13.30;57.80
43995;DHT22;51687;52.160;5.298;2024-03-02T04:50:41;13.40;58.10
43995;DHT22;51687;52.160;5.298;2024-03-02T04:53:08;13.40;58.00
43995;DHT22;51687;52.160;5.298;2024-03-02T04:55:34;13.40;57.20
43995;DHT22;51687;52.160;5.298;2024-03-02T04:58:01;13.40;57.80
43995;DHT22;51687;52.160;5.298;2024-03-02T05:00:28;13.40;57.20
43995;DHT22;51687;52.160;5.298;2024-03-02T05:02:55;13.40;56.80
43995;DHT22;51687;52.160;5.298;2024-03-02T05:05:22;13.40;57.10
43995;DHT22;51687;52.160;5.298;2024-03-02T05:07:49;13.40;57.60
43995;DHT22;51687;52.160;5.298;2024-03-02T05:10:16;13.50;57.70
43995;DHT22;51687;52.160;5.298;2024-03-02T05:12:43;13.50;57.40
43995;DHT22;51687;52.160;5.298;2024-03-02T05:15:12;13.50;57.10
43995;DHT22;51687;52.160;5.298;2024-03-02T05:17:39;13.50;56.40
43995;DHT22;51687;52.160;5.298;2024-03-02T05:20:07;13.50;56.20
43995;DHT22;51687;52.160;5.298;2024-03-02T05:22:35;13.50;55.80
43995;DHT22;51687;52.160;5.298;2024-03-02T05:25:02;13.50;56.00
43995;DHT22;51687;52.160;5.298;2024-03-02T05:27:30;13.40;56.10
43995;DHT22;51687;52.160;5.298;2024-03-02T05:29:56;13.50;56.40
43995;DHT22;51687;52.160;5.298;2024-03-02T05:32:24;13.50;56.80
43995;DHT22;51687;52.160;5.298;2024-03-02T05:34:51;13.50;56.20
43995;DHT22;51687;52.160;5.298;2024-03-02T05:37:18;13.50;56.50
43995;DHT22;51687;52.160;5.298;2024-03-02T05:39:45;13.50;55.70
43995;DHT22;51687;52.160;5.298;2024-03-02T05:42:12;13.40;55.30
43995;DHT22;51687;52.160;5.298;2024-03-02T05:44:39;13.40;55.60
43995;DHT22;51687;52.160;5.298;2024-03-02T05:47:05;13.40;55.70
43995;DHT22;51687;52.160;5.298;2024-03-02T05:49:35;13.50;55.00
43995;DHT22;51687;52.160;5.298;2024-03-02T05:52:02;13.50;55.30
43995;DHT22;51687;52.160;5.298;2024-03-02T05:54:30;13.50;54.80
43995;DHT22;51687;52.160;5.298;2024-03-02T05:56:56;13.50;54.60
43995;DHT22;51687;52.160;5.298;2024-03-02T05:59:23;13.40;55.20
43995;DHT22;51687;52.160;5.298;2024-03-02T06:01:50;13.40;55.10
43995;DHT22;51687;52.160;5.298;2024-03-02T06:04:18;13.40;53.90
43995;DHT22;51687;52.160;5.298;2024-03-02T06:06:45;13.30;54.80
43995;DHT22;51687;52.160;5.298;2024-03-02T06:09:12;13.30;54.20
43995;DHT22;51687;52.160;5.298;2024-03-02T06:11:40;13.30;54.30
43995;DHT22;51687;52.160;5.298;2024-03-02T06:14:08;13.20;54.60
43995;DHT22;51687;52.160;5.298;2024-03-02T06:16:35;13.20;54.70
43995;DHT22;51687;52.160;5.298;2024-03-02T06:19:02;13.20;55.20
43995;DHT22;51687;52.160;5.298;2024-03-02T06:21:29;13.20;55.20
43995;DHT22;51687;52.160;5.298;2024-03-02T06:23:56;13.20;55.20
43995;DHT22;51687;52.160;5.298;2024-03-02T06:26:24;13.20;57.10
43995;DHT22;51687;52.160;5.298;2024-03-02T06:28:52;13.30;55.90
43995;DHT22;51687;52.160;5.298;2024-03-02T06:31:19;13.30;55.00
43995;DHT22;51687;52.160;5.298;2024-03-02T06:33:45;13.30;55.20
43995;DHT22;51687;52.160;5.298;2024-03-02T06:36:13;13.30;56.40
43995;DHT22;51687;52.160;5.298;2024-03-02T06:38:42;13.30;55.30
43995;DHT22;51687;52.160;5.298;2024-03-02T06:41:10;13.40;55.80
43995;DHT22;51687;52.160;5.298;2024-03-02T06:43:37;13.50;58.50
43995;DHT22;51687;52.160;5.298;2024-03-02T06:46:05;13.60;58.80
43995;DHT22;51687;52.160;5.298;2024-03-02T06:48:32;13.80;58.70
43995;DHT22;51687;52.160;5.298;2024-03-02T06:50:59;14.00;61.30
43995;DHT22;51687;52.160;5.298;2024-03-02T06:53:28;14.10;59.00
43995;DHT22;51687;52.160;5.298;2024-03-02T06:56:02;14.30;57.50
43995;DHT22;51687;52.160;5.298;2024-03-02T06:58:30;14.40;55.60
43995;DHT22;51687;52.160;5.298;2024-03-02T07:00:57;14.40;56.80
43995;DHT22;51687;52.160;5.298;2024-03-02T07:03:24;14.50;57.60
43995;DHT22;51687;52.160;5.298;2024-03-02T07:05:51;14.60;57.50
43995;DHT22;51687;52.160;5.298;2024-03-02T07:08:17;14.70;56.90
43995;DHT22;51687;52.160;5.298;2024-03-02T07:15:39;14.70;55.80
43995;DHT22;51687;52.160;5.298;2024-03-02T07:18:38;15.00;55.70
43995;DHT22;51687;52.160;5.298;2024-03-02T07:21:08;15.10;55.80
43995;DHT22;51687;52.160;5.298;2024-03-02T07:23:35;15.10;55.70
43995;DHT22;51687;52.160;5.298;2024-03-02T07:26:02;15.10;53.60
43995;DHT22;51687;52.160;5.298;2024-03-02T07:28:33;15.20;54.20
43995;DHT22;51687;52.160;5.298;2024-03-02T07:31:01;15.20;54.60
43995;DHT22;51687;52.160;5.298;2024-03-02T07:33:29;15.20;56.20
43995;DHT22;51687;52.160;5.298;2024-03-02T07:35:57;15.30;57.20
43995;DHT22;51687;52.160;5.298;2024-03-02T07:38:28;15.40;56.70
43995;DHT22;51687;52.160;5.298;2024-03-02T07:40:55;15.40;53.00
43995;DHT22;51687;52.160;5.298;2024-03-02T07:43:22;15.40;54.30
43995;DHT22;51687;52.160;5.298;2024-03-02T07:45:49;15.30;52.70
43995;DHT22;51687;52.160;5.298;2024-03-02T07:48:16;15.20;54.20
43995;DHT22;51687;52.160;5.298;2024-03-02T07:50:43;15.30;54.50
43995;DHT22;51687;52.160;5.298;2024-03-02T07:53:10;15.20;53.40
43995;DHT22;51687;52.160;5.298;2024-03-02T07:55:37;15.20;54.90
43995;DHT22;51687;52.160;5.298;2024-03-02T07:58:04;15.10;52.60
43995;DHT22;51687;52.160;5.298;2024-03-02T08:00:31;15.10;51.30
43995;DHT22;51687;52.160;5.298;2024-03-02T08:02:57;15.00;50.30
43995;DHT22;51687;52.160;5.298;2024-03-02T08:05:25;14.80;50.80
43995;DHT22;51687;52.160;5.298;2024-03-02T08:07:53;14.80;51.60
43995;DHT22;51687;52.160;5.298;2024-03-02T08:10:21;14.70;51.20
43995;DHT22;51687;52.160;5.298;2024-03-02T08:12:48;14.60;52.20
43995;DHT22;51687;52.160;5.298;2024-03-02T08:15:14;14.50;52.50
43995;DHT22;51687;52.160;5.298;2024-03-02T08:17:41;14.40;51.40
43995;DHT22;51687;52.160;5.298;2024-03-02T08:20:12;14.30;51.40
43995;DHT22;51687;52.160;5.298;2024-03-02T08:22:39;14.30;51.80
43995;DHT22;51687;52.160;5.298;2024-03-02T08:25:07;14.20;51.40
43995;DHT22;51687;52.160;5.298;2024-03-02T08:27:34;14.10;52.50
43995;DHT22;51687;52.160;5.298;2024-03-02T08:30:02;14.00;53.30
43995;DHT22;51687;52.160;5.298;2024-03-02T08:32:33;14.00;55.30
43995;DHT22;51687;52.160;5.298;2024-03-02T08:35:01;14.00;53.40
43995;DHT22;51687;52.160;5.298;2024-03-02T08:37:28;14.00;54.00
43995;DHT22;51687;52.160;5.298;2024-03-02T08:39:55;14.10;53.30
43995;DHT22;51687;52.160;5.298;2024-03-02T08:42:22;14.10;54.00
43995;DHT22;51687;52.160;5.298;2024-03-02T08:44:49;14.10;52.50
43995;DHT22;51687;52.160;5.298;2024-03-02T08:47:16;14.10;52.40
43995;DHT22;51687;52.160;5.298;2024-03-02T08:49:43;14.10;52.80
43995;DHT22;51687;52.160;5.298;2024-03-02T08:52:10;14.10;52.90
43995;DHT22;51687;52.160;5.298;2024-03-02T08:54:37;14.00;54.30
43995;DHT22;51687;52.160;5.298;2024-03-02T08:57:05;14.00;53.40
43995;DHT22;51687;52.160;5.298;2024-03-02T08:59:33;14.10;53.20
43995;DHT22;51687;52.160;5.298;2024-03-02T09:01:59;14.10;52.80
43995;DHT22;51687;52.160;5.298;2024-03-02T09:04:27;14.10;51.50
43995;DHT22;51687;52.160;5.298;2024-03-02T09:06:59;14.00;51.20
43995;DHT22;51687;52.160;5.298;2024-03-02T09:09:26;13.80;52.40
43995;DHT22;51687;52.160;5.298;2024-03-02T09:11:53;13.80;53.00
43995;DHT22;51687;52.160;5.298;2024-03-02T09:14:22;13.70;52.20
43995;DHT22;51687;52.160;5.298;2024-03-02T09:16:49;13.60;52.30
43995;DHT22;51687;52.160;5.298;2024-03-02T09:19:17;13.60;52.90
43995;DHT22;51687;52.160;5.298;2024-03-02T09:21:45;13.60;53.10
43995;DHT22;51687;52.160;5.298;2024-03-02T09:24:12;13.50;53.30
43995;DHT22;51687;52.160;5.298;2024-03-02T09:26:43;13.40;52.50
43995;DHT22;51687;52.160;5.298;2024-03-02T09:29:10;13.30;52.60
43995;DHT22;51687;52.160;5.298;2024-03-02T09:31:43;13.20;52.40
43995;DHT22;51687;52.160;5.298;2024-03-02T09:34:10;13.20;53.40
43995;DHT22;51687;52.160;5.298;2024-03-02T09:36:37;13.20;53.10
43995;DHT22;51687;52.160;5.298;2024-03-02T09:39:04;13.20;54.30
43995;DHT22;51687;52.160;5.298;2024-03-02T09:41:32;13.20;53.20
43995;DHT22;51687;52.160;5.298;2024-03-02T09:44:00;13.20;53.50
43995;DHT22;51687;52.160;5.298;2024-03-02T09:46:27;13.20;52.70
43995;DHT22;51687;52.160;5.298;2024-03-02T09:48:54;13.20;52.70
43995;DHT22;51687;52.160;5.298;2024-03-02T09:51:21;13.20;53.60
43995;DHT22;51687;52.160;5.298;2024-03-02T09:53:49;13.20;52.90
43995;DHT22;51687;52.160;5.298;2024-03-02T09:56:16;13.20;52.10
43995;DHT22;51687;52.160;5.298;2024-03-02T09:58:44;13.20;53.00
43995;DHT22;51687;52.160;5.298;2024-03-02T10:01:11;13.30;51.40
43995;DHT22;51687;52.160;5.298;2024-03-02T10:03:38;13.30;57.10
43995;DHT22;51687;52.160;5.298;2024-03-02T10:06:25;13.40;53.30
43995;DHT22;51687;52.160;5.298;2024-03-02T10:08:53;13.50;52.80
43995;DHT22;51687;52.160;5.298;2024-03-02T10:14:09;13.60;52.20
43995;DHT22;51687;52.160;5.298;2024-03-02T10:16:37;13.60;54.00
43995;DHT22;51687;52.160;5.298;2024-03-02T10:21:51;13.60;51.00
43995;DHT22;51687;52.160;5.298;2024-03-02T10:24:19;13.60;51.60
43995;DHT22;51687;52.160;5.298;2024-03-02T10:26:48;13.70;50.00
43995;DHT22;51687;52.160;5.298;2024-03-02T10:29:15;13.70;50.60
43995;DHT22;51687;52.160;5.298;2024-03-02T10:31:44;13.70;50.10
43995;DHT22;51687;52.160;5.298;2024-03-02T10:34:12;13.70;50.60
43995;DHT22;51687;52.160;5.298;2024-03-02T10:36:43;13.70;49.70
43995;DHT22;51687;52.160;5.298;2024-03-02T10:39:13;13.80;49.00
43995;DHT22;51687;52.160;5.298;2024-03-02T10:41:40;13.80;49.10
43995;DHT22;51687;52.160;5.298;2024-03-02T10:44:09;13.90;51.20
43995;DHT22;51687;52.160;5.298;2024-03-02T10:46:37;13.90;50.50
43995;DHT22;51687;52.160;5.298;2024-03-02T10:49:05;13.90;48.10
43995;DHT22;51687;52.160;5.298;2024-03-02T10:51:35;13.90;48.50
43995;DHT22;51687;52.160;5.298;2024-03-02T10:54:04;13.90;51.10
43995;DHT22;51687;52.160;5.298;2024-03-02T10:56:39;14.00;50.60
43995;DHT22;51687;52.160;5.298;2024-03-02T11:01:48;14.10;49.70
43995;DHT22;51687;52.160;5.298;2024-03-02T11:04:16;14.10;50.10
43995;DHT22;51687;52.160;5.298;2024-03-02T11:06:51;14.20;49.60
43995;DHT22;51687;52.160;5.298;2024-03-02T11:09:22;14.20;48.70
43995;DHT22;51687;52.160;5.298;2024-03-02T11:11:56;14.20;49.80
43995;DHT22;51687;52.160;5.298;2024-03-02T11:14:30;14.20;48.90
43995;DHT22;51687;52.160;5.298;2024-03-02T11:17:00;14.20;47.70
43995;DHT22;51687;52.160;5.298;2024-03-02T11:19:29;14.30;50.70
43995;DHT22;51687;52.160;5.298;2024-03-02T11:21:57;14.30;47.90
43995;DHT22;51687;52.160;5.298;2024-03-02T11:26:51;14.30;47.70
43995;DHT22;51687;52.160;5.298;2024-03-02T11:32:05;14.40;47.70
43995;DHT22;51687;52.160;5.298;2024-03-02T11:34:36;14.40;47.60
43995;DHT22;51687;52.160;5.298;2024-03-02T11:37:05;14.50;47.00
43995;DHT22;51687;52.160;5.298;2024-03-02T11:39:34;14.50;46.30
43995;DHT22;51687;52.160;5.298;2024-03-02T11:42:01;14.50;46.00
43995;DHT22;51687;52.160;5.298;2024-03-02T11:47:02;14.50;46.70
43995;DHT22;51687;52.160;5.298;2024-03-02T11:49:59;14.80;51.10
43995;DHT22;51687;52.160;5.298;2024-03-02T11:52:27;14.90;47.30
43995;DHT22;51687;52.160;5.298;2024-03-02T11:54:54;14.90;46.80
43995;DHT22;51687;52.160;5.298;2024-03-02T11:57:22;15.00;51.10
43995;DHT22;51687;52.160;5.298;2024-03-02T11:59:52;15.00;48.30
43995;DHT22;51687;52.160;5.298;2024-03-02T12:02:20;15.10;47.40
43995;DHT22;51687;52.160;5.298;2024-03-02T12:10:01;15.20;48.10
43995;DHT22;51687;52.160;5.298;2024-03-02T12:12:29;15.40;45.40
43995;DHT22;51687;52.160;5.298;2024-03-02T12:14:56;15.50;45.80
43995;DHT22;51687;52.160;5.298;2024-03-02T12:17:23;15.50;44.10
43995;DHT22;51687;52.160;5.298;2024-03-02T12:19:50;15.60;44.70
43995;DHT22;51687;52.160;5.298;2024-03-02T12:22:17;15.70;45.40
43995;DHT22;51687;52.160;5.298;2024-03-02T12:44:31;15.80;45.20
43995;DHT22;51687;52.160;5.298;2024-03-02T15:27:32;16.60;42.80
43995;DHT22;51687;52.160;5.298;2024-03-02T15:44:44;17.90;40.40
43995;DHT22;51687;52.160;5.298;2024-03-02T15:47:11;17.70;40.50
43995;DHT22;51687;52.160;5.298;2024-03-02T15:49:38;17.60;40.80
43995;DHT22;51687;52.160;5.298;2024-03-02T15:52:04;17.60;41.10
43995;DHT22;51687;52.160;5.298;2024-03-02T15:54:31;17.50;41.30
43995;DHT22;51687;52.160;5.298;2024-03-02T15:56:58;17.50;41.90
43995;DHT22;51687;52.160;5.298;2024-03-02T15:59:25;17.40;42.00
43995;DHT22;51687;52.160;5.298;2024-03-02T16:01:52;17.40;42.10
43995;DHT22;51687;52.160;5.298;2024-03-02T16:04:19;17.40;41.50
43995;DHT22;51687;52.160;5.298;2024-03-02T16:11:40;17.30;41.70
43995;DHT22;51687;52.160;5.298;2024-03-02T16:14:07;17.30;42.50
43995;DHT22;51687;52.160;5.298;2024-03-02T16:16:34;17.30;42.30
43995;DHT22;51687;52.160;5.298;2024-03-02T16:19:01;17.20;42.90
43995;DHT22;51687;52.160;5.298;2024-03-02T16:21:41;17.20;43.00
43995;DHT22;51687;52.160;5.298;2024-03-02T16:24:07;17.20;42.60
43995;DHT22;51687;52.160;5.298;2024-03-02T16:26:34;17.20;44.00
43995;DHT22;51687;52.160;5.298;2024-03-02T16:29:01;17.20;43.40
43995;DHT22;51687;52.160;5.298;2024-03-02T16:31:28;17.10;43.50
43995;DHT22;51687;52.160;5.298;2024-03-02T16:33:55;17.10;43.80
43995;DHT22;51687;52.160;5.298;2024-03-02T16:36:22;17.10;44.10
43995;DHT22;51687;52.160;5.298;2024-03-02T16:38:50;17.00;44.90
43995;DHT22;51687;52.160;5.298;2024-03-02T16:41:17;17.10;46.40
43995;DHT22;51687;52.160;5.298;2024-03-02T16:43:45;17.20;45.90
43995;DHT22;51687;52.160;5.298;2024-03-02T16:46:12;17.20;45.70
43995;DHT22;51687;52.160;5.298;2024-03-02T16:48:39;17.30;45.60
43995;DHT22;51687;52.160;5.298;2024-03-02T16:51:06;17.30;45.30
43995;DHT22;51687;52.160;5.298;2024-03-02T16:53:33;17.40;45.50
43995;DHT22;51687;52.160;5.298;2024-03-02T16:56:01;17.40;46.70
43995;DHT22;51687;52.160;5.298;2024-03-02T16:58:30;17.50;46.80
43995;DHT22;51687;52.160;5.298;2024-03-02T17:00:56;17.60;46.10
43995;DHT22;51687;52.160;5.298;2024-03-02T17:03:23;17.60;46.10
43995;DHT22;51687;52.160;5.298;2024-03-02T17:05:51;17.60;46.30
43995;DHT22;51687;52.160;5.298;2024-03-02T17:08:18;17.60;46.30
43995;DHT22;51687;52.160;5.298;2024-03-02T17:10:45;17.70;45.80
43995;DHT22;51687;52.160;5.298;2024-03-02T17:13:12;17.70;45.70
43995;DHT22;51687;52.160;5.298;2024-03-02T17:15:39;17.70;45.80
43995;DHT22;51687;52.160;5.298;2024-03-02T17:18:06;17.70;46.40
43995;DHT22;51687;52.160;5.298;2024-03-02T17:20:33;17.60;45.30
43995;DHT22;51687;52.160;5.298;2024-03-02T17:23:00;17.60;45.80
43995;DHT22;51687;52.160;5.298;2024-03-02T17:25:27;17.60;45.70
43995;DHT22;51687;52.160;5.298;2024-03-02T17:28:14;17.60;45.60
43995;DHT22;51687;52.160;5.298;2024-03-02T17:30:43;17.60;46.40
43995;DHT22;51687;52.160;5.298;2024-03-02T17:33:10;17.60;46.50
43995;DHT22;51687;52.160;5.298;2024-03-02T17:35:36;17.50;46.50
43995;DHT22;51687;52.160;5.298;2024-03-02T17:38:03;17.50;46.80
43995;DHT22;51687;52.160;5.298;2024-03-02T17:40:30;17.50;46.30
43995;DHT22;51687;52.160;5.298;2024-03-02T17:42:58;17.50;46.90
43995;DHT22;51687;52.160;5.298;2024-03-02T17:45:25;17.50;47.10
43995;DHT22;51687;52.160;5.298;2024-03-02T17:47:51;17.50;47.40
43995;DHT22;51687;52.160;5.298;2024-03-02T17:50:18;17.50;47.30
43995;DHT22;51687;52.160;5.298;2024-03-02T17:52:45;17.50;47.50
43995;DHT22;51687;52.160;5.298;2024-03-02T17:55:12;17.50;47.20
43995;DHT22;51687;52.160;5.298;2024-03-02T17:57:38;17.50;47.40
43995;DHT22;51687;52.160;5.298;2024-03-02T18:00:06;17.50;47.90
43995;DHT22;51687;52.160;5.298;2024-03-02T18:02:33;17.40;48.30
43995;DHT22;51687;52.160;5.298;2024-03-02T18:05:00;17.40;48.10
43995;DHT22;51687;52.160;5.298;2024-03-02T18:07:27;17.40;48.60
43995;DHT22;51687;52.160;5.298;2024-03-02T18:09:53;17.40;49.10
43995;DHT22;51687;52.160;5.298;2024-03-02T18:12:20;17.40;48.40
43995;DHT22;51687;52.160;5.298;2024-03-02T18:14:47;17.40;48.20
43995;DHT22;51687;52.160;5.298;2024-03-02T18:17:14;17.40;49.00
43995;DHT22;51687;52.160;5.298;2024-03-02T18:19:41;17.40;48.60
43995;DHT22;51687;52.160;5.298;2024-03-02T18:22:08;17.30;48.00
43995;DHT22;51687;52.160;5.298;2024-03-02T18:24:35;17.30;48.60
43995;DHT22;51687;52.160;5.298;2024-03-02T18:27:04;17.30;48.40
43995;DHT22;51687;52.160;5.298;2024-03-02T18:29:30;17.30;48.50
43995;DHT22;51687;52.160;5.298;2024-03-02T18:31:58;17.20;48.00
43995;DHT22;51687;52.160;5.298;2024-03-02T18:34:26;17.20;48.40
43995;DHT22;51687;52.160;5.298;2024-03-02T18:36:53;17.20;48.50
43995;DHT22;51687;52.160;5.298;2024-03-02T18:39:22;17.20;48.60
43995;DHT22;51687;52.160;5.298;2024-03-02T18:41:49;17.10;48.30
43995;DHT22;51687;52.160;5.298;2024-03-02T18:44:16;17.10;48.30
43995;DHT22;51687;52.160;5.298;2024-03-02T18:46:42;17.10;48.60
43995;DHT22;51687;52.160;5.298;2024-03-02T18:49:11;17.10;48.60
43995;DHT22;51687;52.160;5.298;2024-03-02T18:51:38;17.10;50.30
43995;DHT22;51687;52.160;5.298;2024-03-02T18:54:06;17.10;49.00
43995;DHT22;51687;52.160;5.298;2024-03-02T18:56:32;17.00;48.80
43995;DHT22;51687;52.160;5.298;2024-03-02T18:58:59;17.00;48.70
43995;DHT22;51687;52.160;5.298;2024-03-02T19:01:26;17.00;48.70
43995;DHT22;51687;52.160;5.298;2024-03-02T19:03:53;17.00;48.70
43995;DHT22;51687;52.160;5.298;2024-03-02T19:06:19;16.90;49.00
43995;DHT22;51687;52.160;5.298;2024-03-02T19:08:46;16.90;48.40
43995;DHT22;51687;52.160;5.298;2024-03-02T19:11:17;16.90;49.10
43995;DHT22;51687;52.160;5.298;2024-03-02T19:13:45;16.90;49.30
43995;DHT22;51687;52.160;5.298;2024-03-02T19:16:12;16.90;49.70
43995;DHT22;51687;52.160;5.298;2024-03-02T19:18:43;16.90;49.40
43995;DHT22;51687;52.160;5.298;2024-03-02T19:21:10;16.90;49.20
43995;DHT22;51687;52.160;5.298;2024-03-02T19:23:37;16.90;48.90
43995;DHT22;51687;52.160;5.298;2024-03-02T19:26:11;16.90;48.90